This is the latest recevied weather packets stored in our database for station/object CE3PA-5. If no packets are shown the sender has not sent any weather packets the latest 10 day(s).
| Time | Temp. | Humidity | Pressure | Rain* | Wind** | Luminosity | Snow |
|---|---|---|---|---|---|---|---|
| 1777616744 | 8.89° C | 23% | 754.8 hPa | - | - | - | - |
| 1777615844 | 8.89° C | 23% | 754.9 hPa | - | - | - | - |
| 1777614943 | 8.89° C | 23% | 754.8 hPa | - | - | - | - |
| 1777614047 | 8.89° C | 23% | 754.8 hPa | - | - | - | - |
| 1777613147 | 8.33° C | 24% | 754.9 hPa | - | - | - | - |
| 1777610447 | 8.89° C | 24% | 755 hPa | - | - | - | - |
| 1777608646 | 8.89° C | 24% | 754.8 hPa | - | - | - | - |
| 1777607746 | 9.44° C | 23% | 754.8 hPa | - | - | - | - |
| 1777606845 | 9.44° C | 23% | 754.8 hPa | - | - | - | - |
| 1777605945 | 10° C | 23% | 754.7 hPa | - | - | - | - |
| 1777604145 | 10.56° C | 23% | 754.7 hPa | - | - | - | - |
| 1777602344 | 10.56° C | 23% | 754.6 hPa | - | - | - | - |
| 1777601445 | 10.56° C | 23% | 754.4 hPa | - | - | - | - |
| 1777600545 | 10.56° C | 23% | 754.5 hPa | - | - | - | - |
| 1777599646 | 10.56° C | 23% | 754.5 hPa | - | - | - | - |
| 1777598744 | 10.56° C | 23% | 754.4 hPa | - | - | - | - |
| 1777597845 | 10.56° C | 23% | 754.4 hPa | - | - | - | - |
| 1777596944 | 11.11° C | 23% | 754.5 hPa | - | - | - | - |
| 1777595144 | 11.67° C | 24% | 754.4 hPa | - | - | - | - |
| 1777594243 | 11.67° C | 24% | 754.3 hPa | - | - | - | - |
| 1777593343 | 11.67° C | 24% | 754.1 hPa | - | - | - | - |
| 1777588845 | 13.89° C | 24% | 753.5 hPa | - | - | - | - |
| 1777587945 | 15° C | 24% | 753.4 hPa | - | - | - | - |
| 1777584344 | 19.44° C | 22% | 753.1 hPa | - | - | - | - |
| 1777583444 | 20° C | 22% | 752.9 hPa | - | - | - | - |
* Rain since midnight (hover to see other rain measurements)
** Current wind speed in m/s (hover to see current wind gust speed)